createdAt,value
2022-09-02T00:01:27.515Z,10.45
2022-09-02T00:04:01.878Z,11.25
2022-09-02T00:06:33.782Z,11.55
2022-09-02T00:09:06.827Z,11.32
2022-09-02T00:11:40.375Z,12.25
2022-09-02T00:16:51.296Z,10.82
2022-09-02T00:19:25.520Z,10.90
2022-09-02T00:24:46.952Z,17.05
2022-09-02T00:27:18.684Z,22.33
2022-09-02T00:29:49.894Z,19.83
2022-09-02T00:32:21.373Z,27.08
2022-09-02T00:34:53.256Z,24.35
2022-09-02T00:37:25.598Z,33.17
2022-09-02T00:39:56.934Z,35.38
2022-09-02T00:42:29.130Z,35.28
2022-09-02T00:45:00.296Z,31.90
2022-09-02T00:47:38.037Z,33.72
2022-09-02T00:50:14.894Z,29.77
2022-09-02T00:53:02.331Z,26.55
2022-09-02T00:55:48.885Z,25.67
2022-09-02T00:58:28.054Z,24.40
2022-09-02T01:01:01.382Z,22.50
2022-09-02T01:03:35.004Z,22.80
2022-09-02T01:06:06.546Z,21.55
2022-09-02T01:08:40.659Z,20.88
2022-09-02T01:11:15.133Z,20.92
2022-09-02T01:13:46.580Z,19.73
2022-09-02T01:16:26.175Z,18.10
2022-09-02T01:19:00.458Z,20.38
2022-09-02T01:21:31.500Z,17.40
2022-09-02T01:24:02.531Z,18.45
2022-09-02T01:26:33.791Z,18.20
2022-09-02T01:29:05.261Z,18.23
2022-09-02T01:31:38.093Z,16.30
2022-09-02T01:34:09.065Z,17.92
2022-09-02T01:36:42.629Z,16.45
2022-09-02T01:39:33.135Z,16.92
2022-09-02T01:44:52.010Z,15.05
2022-09-02T01:47:27.306Z,15.35
2022-09-02T01:49:59.009Z,13.82
2022-09-02T01:52:33.232Z,14.40
2022-09-02T01:55:05.856Z,14.05
2022-09-02T01:57:37.774Z,13.48
2022-09-02T02:00:13.326Z,14.63
2022-09-02T02:02:44.482Z,13.10
2022-09-02T02:05:17.241Z,14.07
2022-09-02T02:07:50.083Z,12.93
2022-09-02T02:10:23.140Z,11.95
2022-09-02T02:12:54.576Z,14.55
2022-09-02T02:17:56.692Z,13.52
2022-09-02T02:20:28.421Z,13.80
2022-09-02T02:23:00.190Z,11.23
2022-09-02T02:25:31.375Z,12.25
2022-09-02T02:28:02.563Z,12.35
2022-09-02T02:30:34.917Z,10.55
2022-09-02T02:33:07.053Z,11.25
2022-09-02T02:35:38.413Z,11.35
2022-09-02T02:38:09.927Z,10.07
2022-09-02T02:40:45.543Z,11.13
2022-09-02T02:43:16.827Z,10.77
2022-09-02T02:45:47.811Z,10.32
2022-09-02T02:48:19.077Z,10.35
2022-09-02T02:50:50.274Z,10.15
2022-09-02T02:53:23.067Z,10.65
2022-09-02T02:55:54.325Z,10.20
2022-09-02T02:58:25.454Z,10.52
2022-09-02T03:00:58.106Z,10.13
2022-09-02T03:03:29.921Z,10.93
2022-09-02T03:06:02.147Z,9.60
2022-09-02T03:08:34.333Z,10.15
2022-09-02T03:11:07.163Z,10.30
2022-09-02T03:13:43.703Z,10.48
2022-09-02T03:16:14.955Z,10.23
2022-09-02T03:18:46.359Z,10.95
2022-09-02T03:21:18.312Z,10.02
2022-09-02T03:23:50.103Z,10.45
2022-09-02T03:26:24.775Z,9.77
2022-09-02T03:28:58.278Z,10.63
2022-09-02T03:31:30.580Z,9.60
2022-09-02T03:36:40.201Z,10.55
2022-09-02T03:39:15.071Z,9.70
2022-09-02T03:41:48.068Z,11.38
2022-09-02T03:44:19.657Z,10.27
2022-09-02T03:46:51.090Z,10.48
2022-09-02T03:49:22.028Z,10.32
2022-09-02T03:51:55.100Z,9.68
2022-09-02T03:54:27.305Z,9.75
2022-09-02T03:57:00.604Z,9.82
2022-09-02T03:59:32.061Z,9.45
2022-09-02T04:02:04.858Z,9.43
2022-09-02T04:04:36.570Z,9.18
2022-09-02T04:07:08.629Z,9.68
2022-09-02T04:09:42.385Z,9.25
2022-09-02T04:12:15.896Z,9.73
2022-09-02T04:14:47.182Z,9.10
2022-09-02T04:17:22.492Z,9.50
2022-09-02T04:19:55.867Z,8.82
2022-09-02T04:22:27.485Z,9.18
2022-09-02T04:24:58.733Z,9.88
2022-09-02T04:27:30.764Z,8.98
2022-09-02T04:30:02.028Z,9.38
2022-09-02T04:32:40.471Z,9.00
2022-09-02T04:35:13.666Z,10.20
2022-09-02T04:37:45.577Z,9.90
2022-09-02T04:40:17.747Z,9.15
2022-09-02T04:42:50.212Z,9.02
2022-09-02T04:45:29.895Z,9.73
2022-09-02T04:48:02.139Z,9.55
2022-09-02T04:50:34.749Z,9.20
2022-09-02T04:53:06.847Z,8.65
2022-09-02T04:55:42.400Z,8.50
2022-09-02T04:58:17.502Z,8.55
2022-09-02T05:00:53.046Z,9.52
2022-09-02T05:03:26.033Z,8.82
2022-09-02T05:06:05.685Z,8.63
2022-09-02T05:08:40.323Z,8.45
2022-09-02T05:11:16.302Z,8.65
2022-09-02T05:13:53.817Z,8.02
2022-09-02T05:16:29.162Z,9.00
2022-09-02T05:19:04.776Z,8.75
2022-09-02T05:21:45.450Z,8.85
2022-09-02T05:24:26.593Z,9.55
2022-09-02T05:27:00.975Z,8.85
2022-09-02T05:29:35.444Z,8.88
2022-09-02T05:32:09.557Z,8.30
2022-09-02T05:34:43.090Z,8.57
2022-09-02T05:37:14.716Z,9.57
2022-09-02T05:39:46.712Z,9.77
2022-09-02T05:42:18.302Z,8.40
2022-09-02T05:44:50.422Z,8.63
2022-09-02T05:47:25.946Z,8.27
2022-09-02T05:49:57.944Z,8.60
2022-09-02T05:52:30.535Z,8.07
2022-09-02T05:55:02.422Z,8.23
2022-09-02T05:57:36.624Z,8.60
2022-09-02T06:00:11.044Z,8.05
2022-09-02T06:02:56.825Z,7.70
2022-09-02T06:05:32.484Z,8.20
2022-09-02T06:08:11.373Z,7.93
2022-09-02T06:10:46.057Z,8.25
2022-09-02T06:13:24.082Z,7.85
2022-09-02T06:15:59.156Z,8.43
2022-09-02T06:18:34.034Z,7.85
2022-09-02T06:21:07.176Z,7.18
2022-09-02T06:23:43.921Z,7.93
2022-09-02T06:26:16.984Z,7.55
2022-09-02T06:28:49.293Z,8.13
2022-09-02T06:31:25.081Z,7.55
2022-09-02T06:33:59.712Z,8.35
2022-09-02T06:36:34.071Z,7.50
2022-09-02T06:39:05.583Z,7.68
2022-09-02T06:41:39.452Z,8.23
2022-09-02T06:44:16.011Z,8.30
2022-09-02T06:46:56.673Z,7.57
2022-09-02T06:49:30.547Z,7.80
2022-09-02T06:52:03.537Z,7.70
2022-09-02T06:54:37.510Z,8.73
2022-09-02T06:57:14.268Z,7.05
2022-09-02T06:59:46.244Z,7.03
2022-09-02T07:05:12.422Z,7.10
2022-09-02T07:07:47.574Z,7.22
2022-09-02T07:10:19.280Z,7.47
2022-09-02T07:12:56.373Z,7.50
2022-09-02T07:15:27.565Z,7.20
2022-09-02T07:17:59.643Z,7.07
2022-09-02T07:23:46.422Z,7.18
2022-09-02T07:26:20.673Z,7.72
2022-09-02T07:29:12.929Z,7.05
2022-09-02T07:31:48.119Z,7.82
2022-09-02T07:34:22.009Z,7.60
2022-09-02T07:36:57.837Z,6.28
2022-09-02T07:39:33.818Z,6.95
2022-09-02T07:42:07.549Z,6.75
2022-09-02T07:47:24.298Z,6.65
2022-09-02T07:52:52.759Z,6.68
2022-09-02T07:55:25.370Z,6.70
2022-09-02T07:57:56.962Z,7.00
2022-09-02T08:00:48.958Z,6.78
2022-09-02T08:03:20.835Z,6.70
2022-09-02T08:05:58.585Z,6.78
2022-09-02T08:09:14.469Z,6.80
2022-09-02T08:14:52.748Z,6.30
2022-09-02T08:17:24.376Z,6.47
2022-09-02T08:20:15.076Z,7.15
2022-09-02T08:22:50.886Z,6.45
2022-09-02T08:25:30.375Z,5.93
2022-09-02T08:28:01.363Z,6.00
2022-09-02T08:30:32.833Z,6.43
2022-09-02T08:33:04.051Z,6.80
2022-09-02T08:35:35.226Z,6.47
2022-09-02T08:38:07.562Z,6.50
2022-09-02T08:40:58.375Z,6.13
2022-09-02T08:43:34.902Z,6.20
2022-09-02T08:46:07.850Z,6.65
2022-09-02T08:49:09.656Z,6.32
2022-09-02T08:51:53.398Z,5.93
2022-09-02T08:54:54.498Z,5.95
2022-09-02T08:57:36.384Z,5.60
2022-09-02T09:00:15.645Z,5.93
2022-09-02T09:03:08.067Z,5.70
2022-09-02T09:06:03.252Z,5.53
2022-09-02T09:11:27.524Z,5.45
2022-09-02T09:14:19.027Z,6.25
2022-09-02T09:17:00.220Z,5.88
2022-09-02T09:19:53.367Z,6.47
2022-09-02T09:22:39.748Z,5.57
2022-09-02T09:25:17.040Z,6.13
2022-09-02T09:27:48.143Z,5.68
2022-09-02T09:30:19.496Z,5.68
2022-09-02T09:33:37.122Z,5.43
2022-09-02T09:36:09.199Z,5.95
2022-09-02T09:38:45.761Z,5.80
2022-09-02T09:41:26.024Z,5.60
2022-09-02T09:43:58.160Z,5.53
2022-09-02T09:46:35.632Z,5.78
2022-09-02T09:49:08.002Z,5.72
2022-09-02T09:51:58.428Z,5.60
2022-09-02T09:54:30.142Z,5.82
2022-09-02T09:57:23.059Z,6.03
2022-09-02T09:59:58.230Z,5.47
2022-09-02T10:05:36.930Z,6.45
2022-09-02T10:08:23.502Z,5.30
2022-09-02T10:11:04.972Z,5.30
2022-09-02T10:13:38.826Z,5.78
2022-09-02T10:16:34.510Z,5.65
2022-09-02T10:19:20.851Z,5.82
2022-09-02T10:22:37.902Z,6.25
2022-09-02T10:25:25.624Z,5.78
2022-09-02T10:28:28.252Z,6.13
2022-09-02T10:31:17.523Z,5.60
2022-09-02T10:34:13.706Z,6.65
2022-09-02T10:36:56.822Z,5.63
2022-09-02T10:39:27.730Z,7.13
2022-09-02T10:42:11.697Z,7.22
2022-09-02T10:45:11.431Z,6.90
2022-09-02T10:47:43.089Z,7.20
2022-09-02T10:50:31.903Z,7.47
2022-09-02T10:53:35.389Z,7.95
2022-09-02T10:56:33.227Z,6.90
2022-09-02T10:59:09.886Z,7.00
2022-09-02T11:02:13.599Z,7.20
2022-09-02T11:05:01.449Z,6.63
2022-09-02T11:08:16.403Z,7.13
2022-09-02T11:11:14.769Z,6.72
2022-09-02T11:13:56.053Z,6.65
2022-09-02T11:17:15.236Z,6.90
2022-09-02T11:20:03.467Z,6.97
2022-09-02T11:22:58.668Z,6.72
2022-09-02T11:26:06.976Z,7.07
2022-09-02T11:28:59.817Z,7.25
2022-09-02T11:32:03.424Z,6.85
2022-09-02T11:35:06.492Z,7.72
2022-09-02T11:37:50.823Z,7.43
2022-09-02T11:40:34.998Z,6.43
2022-09-02T11:43:33.057Z,7.07
2022-09-02T11:46:16.318Z,7.75
2022-09-02T11:49:20.743Z,7.22
2022-09-02T11:51:57.906Z,7.13
2022-09-02T11:54:42.278Z,7.55
2022-09-02T11:57:26.419Z,7.15
2022-09-02T12:03:50.124Z,6.72
2022-09-02T12:06:25.988Z,7.38
2022-09-02T12:08:57.742Z,6.90
2022-09-02T12:11:52.247Z,6.82
2022-09-02T12:14:29.356Z,6.85
2022-09-02T12:17:13.868Z,7.28
2022-09-02T12:19:47.465Z,7.10
2022-09-02T12:25:05.300Z,6.93
2022-09-02T12:28:01.555Z,7.22
2022-09-02T12:31:30.439Z,7.22
2022-09-02T12:34:04.239Z,6.32
2022-09-02T12:36:41.747Z,8.32
2022-09-02T12:39:36.995Z,10.13
2022-09-02T12:42:13.351Z,8.05
2022-09-02T12:45:15.425Z,7.28
2022-09-02T12:48:03.973Z,7.20
2022-09-02T12:50:58.611Z,6.20
2022-09-02T12:53:42.514Z,9.35
2022-09-02T12:56:24.331Z,7.30
2022-09-02T12:59:02.466Z,8.27
2022-09-02T13:01:44.480Z,7.78
2022-09-02T13:04:30.287Z,7.40
2022-09-02T13:07:49.481Z,7.72
2022-09-02T13:11:12.350Z,6.50
2022-09-02T13:13:49.614Z,8.50
2022-09-02T13:16:54.223Z,7.70
2022-09-02T13:19:52.731Z,7.22
2022-09-02T13:22:50.956Z,8.10
2022-09-02T13:25:41.523Z,7.63
2022-09-02T13:28:56.027Z,7.93
2022-09-02T13:31:30.594Z,9.73
2022-09-02T13:34:27.508Z,9.05
2022-09-02T13:36:59.298Z,9.38
2022-09-02T13:39:32.481Z,8.95
2022-09-02T13:42:19.778Z,9.25
2022-09-02T13:44:51.047Z,8.43
2022-09-02T13:47:42.145Z,7.97
2022-09-02T13:50:37.476Z,7.97
2022-09-02T13:53:49.204Z,8.63
2022-09-02T13:56:06.208Z,8.77
2022-09-02T13:58:59.130Z,8.30
2022-09-02T14:01:38.882Z,7.55
2022-09-02T14:04:17.229Z,7.57
2022-09-02T14:06:49.835Z,7.15
2022-09-02T14:09:26.106Z,8.82
2022-09-02T14:12:00.565Z,9.70
2022-09-02T14:14:34.535Z,8.88
2022-09-02T14:17:23.724Z,8.15
2022-09-02T14:20:11.393Z,9.10
2022-09-02T14:22:42.493Z,8.05
2022-09-02T14:25:18.183Z,8.18
2022-09-02T14:27:57.642Z,7.70
2022-09-02T14:30:41.136Z,8.70
2022-09-02T14:33:57.012Z,7.50
2022-09-02T14:36:29.730Z,6.60
2022-09-02T14:45:08.066Z,8.45
2022-09-02T14:47:44.222Z,7.60
2022-09-02T14:51:00.347Z,7.22
2022-09-02T14:53:37.919Z,7.75
2022-09-02T14:56:09.660Z,6.60
2022-09-02T14:59:00.640Z,6.95
2022-09-02T15:01:31.955Z,7.25
2022-09-02T15:04:43.245Z,6.55
2022-09-02T15:07:34.687Z,6.95
2022-09-02T15:10:06.873Z,7.40
2022-09-02T15:12:49.651Z,7.03
2022-09-02T15:15:22.459Z,7.03
2022-09-02T15:17:53.982Z,6.03
2022-09-02T15:20:26.421Z,7.97
2022-09-02T15:23:00.875Z,6.82
2022-09-02T15:28:21.138Z,6.97
2022-09-02T15:31:03.203Z,6.72
2022-09-02T15:33:36.289Z,7.47
2022-09-02T15:36:29.151Z,6.72
2022-09-02T15:39:02.062Z,7.00
2022-09-02T15:42:13.541Z,7.00
2022-09-02T15:45:05.740Z,6.97
2022-09-02T15:47:41.047Z,6.65
2022-09-02T15:50:14.724Z,7.15
2022-09-02T15:52:47.762Z,6.60
2022-09-02T15:55:38.955Z,7.00
2022-09-02T15:58:11.701Z,6.85
2022-09-02T16:00:44.238Z,6.82
2022-09-02T16:03:16.630Z,6.68
2022-09-02T16:05:49.852Z,5.87
2022-09-02T16:08:23.280Z,6.43
2022-09-02T16:13:26.206Z,6.88
2022-09-02T16:16:18.558Z,6.70
2022-09-02T16:18:55.950Z,6.47
2022-09-02T16:21:28.487Z,6.88
2022-09-02T16:24:00.345Z,6.47
2022-09-02T16:26:35.981Z,7.85
2022-09-02T16:29:10.741Z,6.80
2022-09-02T16:31:44.797Z,6.38
2022-09-02T16:34:22.349Z,6.07
2022-09-02T16:36:53.806Z,6.28
2022-09-02T16:39:26.008Z,6.50
2022-09-02T16:41:57.382Z,6.40
2022-09-02T16:44:30.379Z,6.63
2022-09-02T16:47:04.912Z,6.75
2022-09-02T16:49:42.704Z,6.97
2022-09-02T16:52:14.310Z,6.57
2022-09-02T16:54:49.784Z,6.65
2022-09-02T16:57:21.265Z,6.20
2022-09-02T16:59:53.784Z,6.65
2022-09-02T17:02:25.872Z,6.57
2022-09-02T17:04:58.082Z,6.47
2022-09-02T17:07:29.176Z,6.88
2022-09-02T17:10:03.833Z,7.03
2022-09-02T17:12:40.905Z,6.35
2022-09-02T17:18:01.007Z,6.68
2022-09-02T17:20:32.090Z,7.05
2022-09-02T17:23:03.484Z,6.70
2022-09-02T17:25:56.804Z,6.25
2022-09-02T17:28:29.274Z,7.18
2022-09-02T17:31:00.506Z,6.55
2022-09-02T17:33:32.544Z,7.28
2022-09-02T17:36:03.728Z,6.15
2022-09-02T17:38:34.764Z,6.13
2022-09-02T17:41:25.442Z,7.00
2022-09-02T17:43:56.651Z,6.78
2022-09-02T17:46:28.360Z,6.45
2022-09-02T17:49:16.201Z,7.32
2022-09-02T17:51:49.658Z,6.57
2022-09-02T17:54:20.967Z,6.40
2022-09-02T17:57:12.824Z,6.95
2022-09-02T17:59:52.691Z,6.93
2022-09-02T18:02:44.481Z,6.95
2022-09-02T18:05:39.393Z,7.00
2022-09-02T18:08:28.362Z,6.65
2022-09-02T18:11:04.436Z,6.68
2022-09-02T18:13:38.060Z,6.60
2022-09-02T18:19:06.874Z,6.32
2022-09-02T18:22:18.690Z,6.72
2022-09-02T18:25:09.691Z,6.05
2022-09-02T18:28:01.167Z,6.45
2022-09-02T18:30:46.093Z,7.18
2022-09-02T18:33:37.308Z,6.10
2022-09-02T18:36:19.086Z,7.50
2022-09-02T18:39:03.488Z,7.20
2022-09-02T18:41:56.450Z,6.13
2022-09-02T18:44:45.416Z,7.15
2022-09-02T18:47:32.910Z,6.75
2022-09-02T18:50:07.767Z,6.70
2022-09-02T18:52:39.183Z,6.50
2022-09-02T18:55:16.958Z,7.10
2022-09-02T18:57:59.714Z,6.63
2022-09-02T19:00:35.496Z,6.47
2022-09-02T19:03:07.670Z,7.13
2022-09-02T19:05:39.299Z,6.60
2022-09-02T19:08:37.154Z,6.72
2022-09-02T19:11:16.769Z,7.05
2022-09-02T19:13:51.873Z,7.05
2022-09-02T19:16:29.624Z,7.15
2022-09-02T19:19:00.721Z,6.15
2022-09-02T19:21:46.682Z,6.35
2022-09-02T19:24:24.781Z,6.93
2022-09-02T19:27:10.263Z,6.47
2022-09-02T19:29:45.778Z,6.47
2022-09-02T19:32:18.278Z,6.57
2022-09-02T19:34:49.495Z,6.78
2022-09-02T19:37:20.692Z,6.95
2022-09-02T19:39:52.662Z,6.47
2022-09-02T19:42:25.020Z,6.80
2022-09-02T19:44:56.417Z,7.05
2022-09-02T19:50:18.373Z,6.85
2022-09-02T19:52:51.464Z,7.00
2022-09-02T19:55:22.844Z,6.70
2022-09-02T19:57:54.633Z,6.90
2022-09-02T20:00:25.858Z,6.50
2022-09-02T20:02:57.556Z,6.57
2022-09-02T20:05:29.643Z,6.97
2022-09-02T20:08:00.660Z,6.72
2022-09-02T20:10:31.636Z,6.97
2022-09-02T20:13:02.692Z,6.53
2022-09-02T20:15:33.698Z,6.60
2022-09-02T20:18:16.878Z,7.25
2022-09-02T20:20:53.198Z,6.57
2022-09-02T20:23:24.577Z,7.25
2022-09-02T20:26:11.987Z,6.50
2022-09-02T20:29:10.156Z,7.15
2022-09-02T20:32:01.798Z,6.20
2022-09-02T20:34:47.823Z,6.28
2022-09-02T20:40:38.206Z,6.10
2022-09-02T20:43:20.666Z,6.95
2022-09-02T20:46:03.713Z,6.78
2022-09-02T20:48:54.429Z,6.68
2022-09-02T20:51:32.931Z,6.15
2022-09-02T20:54:26.827Z,5.80
2022-09-02T20:57:15.441Z,6.70
2022-09-02T21:00:11.865Z,6.30
2022-09-02T21:02:59.560Z,6.40
2022-09-02T21:05:52.253Z,6.75
2022-09-02T21:08:35.047Z,6.85
2022-09-02T21:11:15.410Z,7.00
2022-09-02T21:13:53.216Z,7.07
2022-09-02T21:16:41.265Z,6.25
2022-09-02T21:19:51.009Z,6.40
2022-09-02T21:25:32.322Z,6.97
2022-09-02T21:30:44.872Z,6.28
2022-09-02T21:33:18.603Z,6.38
2022-09-02T21:35:52.356Z,6.90
2022-09-02T21:41:06.285Z,7.63
2022-09-02T21:43:48.321Z,6.55
2022-09-02T21:46:28.363Z,6.65
2022-09-02T21:49:23.742Z,6.53
2022-09-02T21:52:45.257Z,6.57
2022-09-02T21:55:40.727Z,6.55
2022-09-02T21:58:29.276Z,6.53
2022-09-02T22:01:22.866Z,6.95
2022-09-02T22:04:03.440Z,6.13
2022-09-02T22:06:47.413Z,7.07
2022-09-02T22:12:15.961Z,6.88
2022-09-02T22:15:05.516Z,6.55
2022-09-02T22:17:59.264Z,6.78
2022-09-02T22:20:36.774Z,6.55
2022-09-02T22:23:27.572Z,6.70
2022-09-02T22:26:32.083Z,6.90
2022-09-02T22:31:43.976Z,6.72
2022-09-02T22:34:17.534Z,6.60
2022-09-02T22:36:57.443Z,6.40
2022-09-02T22:39:58.007Z,7.30
2022-09-02T22:42:34.979Z,6.57
2022-09-02T22:46:08.495Z,6.35
2022-09-02T22:49:12.498Z,6.65
2022-09-02T22:52:29.516Z,6.43
2022-09-02T22:55:00.478Z,6.57
2022-09-02T22:57:49.680Z,6.88
2022-09-02T23:00:22.062Z,6.53
2022-09-02T23:03:10.237Z,6.97
2022-09-02T23:05:49.555Z,6.10
2022-09-02T23:08:22.878Z,7.03
2022-09-02T23:11:32.111Z,6.65
2022-09-02T23:14:27.801Z,6.72
2022-09-02T23:17:24.592Z,7.25
2022-09-02T23:20:21.330Z,6.43
2022-09-02T23:23:10.649Z,6.75
2022-09-02T23:25:53.936Z,6.80
2022-09-02T23:28:56.884Z,6.77
2022-09-02T23:32:05.135Z,6.47
2022-09-02T23:34:42.678Z,7.03
2022-09-02T23:37:33.718Z,6.72
2022-09-02T23:40:31.056Z,7.47
2022-09-02T23:43:04.458Z,7.40
2022-09-02T23:45:37.846Z,7.32
2022-09-02T23:48:43.692Z,7.15
2022-09-02T23:51:40.798Z,6.97
2022-09-02T23:57:24.949Z,7.38
